Aviation Digital Data Service (ADDS)

Output produced by TAFs form (1129 UTC 19 January 2018)
found at http://www.aviationweather.gov/adds/tafs/
 
RJSA 191100Z 20006KT 9999 -SHSN FEW015 BKN035 M02/M08 Q1019
TAF RJSA 191105Z 1912/2018 22008KT 9999 FEW020 SCT040 
     TEMPO 2006/2012 1500 -SHSN FEW005 BKN008 BKN015